Time;durP1;ratioP1;P1;durP2;ratioP2;P2;SDS_P1;SDS_P2;PMS_P1;PMS_P2;Temp;Humidity;BMP_temperature;BMP_pressure;BME280_temperature;BME280_humidity;BME280_pressure;Samples;Min_cycle;Max_cycle;Signal;HPM_P1;HPM_P2
2024/04/11 00:10:22;;;;;;;10.60;3.20;;;;;;;10.28;73.61;101832.00;673142;1266;139862;-81
2024/04/11 00:25:25;;;;;;;8.00;2.90;;;;;;;9.78;74.36;101844.39;675504;1264;139375;-81
2024/04/11 00:40:28;;;;;;;6.70;3.10;;;;;;;9.45;75.22;101844.61;672233;1266;138879;-80
2024/04/11 00:55:32;;;;;;;36.20;17.50;;;;;;;9.16;75.71;101842.98;675623;1264;139015;-81
2024/04/11 01:10:37;;;;;;;49.80;20.60;;;;;;;8.94;76.21;101845.42;676262;1264;139303;-81
2024/04/11 01:25:40;;;;;;;22.00;8.70;;;;;;;8.64;76.43;101858.80;676361;1266;138944;-80
2024/04/11 01:40:48;;;;;;;11.60;5.50;;;;;;;8.32;76.38;101861.67;674138;1267;139450;-79
2024/04/11 01:55:53;;;;;;;9.80;4.80;;;;;;;8.07;76.79;101872.24;674279;1265;139424;-82
2024/04/11 02:10:56;;;;;;;24.10;8.00;;;;;;;7.87;77.12;101871.54;678253;1268;141685;-82
2024/04/11 02:25:59;;;;;;;12.70;5.70;;;;;;;7.55;77.46;101878.55;675405;1264;139444;-81
2024/04/11 02:41:06;;;;;;;16.90;6.50;;;;;;;7.24;78.14;101884.75;668381;1268;138777;-80
2024/04/11 02:56:11;;;;;;;17.70;7.40;;;;;;;6.99;78.87;101884.73;675123;1266;138984;-82
2024/04/11 03:11:16;;;;;;;22.20;10.60;;;;;;;6.76;79.63;101882.46;673139;1276;139082;-81
2024/04/11 03:26:20;;;;;;;21.40;9.40;;;;;;;6.52;80.56;101882.67;672840;1266;139814;-81
2024/04/11 03:41:24;;;;;;;18.30;7.10;;;;;;;6.36;81.95;101894.38;672684;1268;139693;-82
2024/04/11 03:56:27;;;;;;;24.60;14.10;;;;;;;6.35;82.00;101900.48;672733;1267;140115;-80
2024/04/11 04:11:36;;;;;;;29.30;16.10;;;;;;;6.37;82.68;101915.89;673913;1266;138914;-80
2024/04/11 04:26:40;;;;;;;25.00;10.50;;;;;;;6.37;83.03;101927.17;675683;1263;139277;-81
2024/04/11 04:41:44;;;;;;;18.80;9.00;;;;;;;6.37;84.44;101937.06;673774;1264;139222;-81
2024/04/11 04:56:50;;;;;;;53.70;19.00;;;;;;;6.52;85.35;101948.42;677468;1267;139051;-81
2024/04/11 05:11:53;;;;;;;36.00;15.40;;;;;;;6.89;85.83;101965.87;673533;1266;139575;-80
2024/04/11 05:26:58;;;;;;;25.80;14.10;;;;;;;7.49;85.75;101967.25;672201;1267;139184;-80
2024/04/11 05:42:02;;;;;;;20.60;9.50;;;;;;;8.65;85.94;101979.13;673869;1261;138906;-81
2024/04/11 05:57:05;;;;;;;20.70;9.50;;;;;;;11.91;84.17;101977.44;674509;1261;139891;-81
2024/04/11 06:12:10;;;;;;;22.00;9.10;;;;;;;16.22;72.97;101987.23;671343;1267;138916;-81
2024/04/11 06:27:15;;;;;;;18.30;8.10;;;;;;;18.78;64.55;101986.64;671986;1262;138645;-81
2024/04/11 06:42:26;;;;;;;10.20;4.00;;;;;;;19.80;58.83;101987.59;674273;1262;138854;-80
2024/04/11 06:57:36;;;;;;;11.00;4.40;;;;;;;20.08;55.37;101989.95;676499;1262;138219;-81
2024/04/11 07:12:41;;;;;;;6.20;2.60;;;;;;;20.72;54.25;101989.85;674278;1262;139056;-80
2024/04/11 07:27:44;;;;;;;9.90;2.80;;;;;;;21.28;52.80;101996.67;672346;1265;138647;-80
2024/04/11 07:42:55;;;;;;;8.60;3.80;;;;;;;21.32;51.84;101997.19;674942;1262;139811;-81
2024/04/11 07:58:05;;;;;;;8.20;2.90;;;;;;;20.76;51.35;101989.95;673857;1265;138106;-79
2024/04/11 08:13:08;;;;;;;9.40;2.60;;;;;;;20.99;50.78;101986.73;671971;1265;140148;-80
2024/04/11 08:28:13;;;;;;;7.70;2.60;;;;;;;20.77;50.81;101977.90;673304;1266;138796;-80
2024/04/11 08:43:19;;;;;;;8.20;3.10;;;;;;;21.12;50.05;101965.64;668710;1267;139250;-80
2024/04/11 08:58:23;;;;;;;8.90;2.60;;;;;;;19.22;50.36;101958.11;666444;1267;139598;-80
2024/04/11 09:13:26;;;;;;;8.80;4.40;;;;;;;18.44;52.73;101944.16;666040;1262;138602;-82
2024/04/11 09:28:30;;;;;;;7.20;2.60;;;;;;;19.57;50.18;101936.06;666868;1267;138155;-79
2024/04/11 09:43:40;;;;;;;5.50;2.30;;;;;;;20.59;50.00;101939.21;665966;1266;138503;-79
2024/04/11 09:58:45;;;;;;;5.50;1.80;;;;;;;21.33;47.79;101927.18;667082;1267;138219;-81
2024/04/11 10:13:49;;;;;;;2.70;2.20;;;;;;;20.13;47.92;101932.52;667952;1267;138450;-81
2024/04/11 10:28:56;;;;;;;4.00;2.00;;;;;;;18.71;49.00;101926.95;675904;1267;140243;-81
2024/04/11 10:44:05;;;;;;;10.10;2.90;;;;;;;20.26;47.35;101915.20;674558;1265;138191;-82
2024/04/11 10:59:22;;;;;;;7.80;2.30;;;;;;;20.25;46.59;101901.99;672162;1265;871025;-80
2024/04/11 11:29:20;;;;;;;5.80;1.70;;;;;;;20.75;46.98;101870.77;655215;1300;544915;-80
2024/04/11 11:44:28;;;;;;;5.50;1.80;;;;;;;20.92;46.58;101853.08;669969;1287;138199;-80
2024/04/11 11:59:31;;;;;;;6.10;1.80;;;;;;;19.99;48.12;101842.38;668816;1276;137983;-80
2024/04/11 12:14:35;;;;;;;9.70;2.10;;;;;;;19.87;48.22;101835.58;667352;1276;139207;-79
2024/04/11 12:29:42;;;;;;;5.90;3.70;;;;;;;19.67;48.59;101836.93;670090;1273;137751;-79
2024/04/11 12:44:46;;;;;;;7.90;2.10;;;;;;;19.98;48.28;101821.31;673691;1269;139151;-80
2024/04/11 12:59:49;;;;;;;17.00;2.60;;;;;;;20.61;47.28;101809.92;673917;1269;138780;-83
2024/04/11 13:15:08;;;;;;;7.10;1.80;;;;;;;20.81;47.44;101802.67;674778;1272;138829;-81
2024/04/11 13:30:13;;;;;;;5.50;2.10;;;;;;;20.66;46.71;101796.60;667998;1270;139157;-79
2024/04/11 13:45:22;;;;;;;5.80;1.90;;;;;;;20.68;46.78;101770.65;669898;1270;138684;-80
2024/04/11 14:00:36;;;;;;;13.20;2.70;;;;;;;20.41;46.75;101764.27;670908;1269;138572;-81
2024/04/11 14:15:39;;;;;;;11.30;2.60;;;;;;;20.25;47.04;101748.77;671198;1269;138936;-80
2024/04/11 14:30:54;;;;;;;6.00;2.20;;;;;;;20.22;47.71;101735.22;673604;1271;139566;-80
2024/04/11 14:45:59;;;;;;;10.20;3.10;;;;;;;20.36;47.83;101711.11;672168;1277;138205;-83
2024/04/11 15:01:14;;;;;;;5.60;2.20;;;;;;;20.12;47.86;101699.68;672452;1270;139223;-82
2024/04/11 15:31:31;;;;;;;13.30;4.10;;;;;;;19.69;48.95;101674.70;675698;1267;139200;-82
2024/04/11 15:46:39;;;;;;;9.60;3.70;;;;;;;19.79;49.43;101674.07;676662;1269;139847;-84
2024/04/11 16:01:43;;;;;;;5.10;2.10;;;;;;;19.07;49.34;101662.14;676424;1261;138937;-82
2024/04/11 16:16:50;;;;;;;8.40;3.70;;;;;;;18.93;50.11;101651.35;678276;1266;138258;-85
2024/04/11 16:31:58;;;;;;;19.10;5.80;;;;;;;18.60;50.61;101640.80;672654;1260;138325;-82
2024/04/11 16:47:02;;;;;;;15.90;6.40;;;;;;;18.30;51.40;101640.10;672162;1267;138484;-84
2024/04/11 17:02:09;;;;;;;10.80;5.80;;;;;;;18.08;52.01;101627.85;674097;1264;138479;-83
2024/04/11 17:17:14;;;;;;;7.70;3.90;;;;;;;17.91;52.68;101621.80;670411;1261;139355;-82
2024/04/11 17:32:22;;;;;;;15.30;6.00;;;;;;;17.76;53.47;101618.60;670625;1264;139662;-81
2024/04/11 17:47:30;;;;;;;11.50;4.40;;;;;;;17.62;53.69;101614.61;669913;1265;138114;-82
2024/04/11 18:02:34;;;;;;;8.40;4.60;;;;;;;17.37;54.16;101630.47;671901;1265;138609;-83
2024/04/11 18:17:38;;;;;;;23.40;8.60;;;;;;;17.22;54.67;101635.09;678096;1262;138285;-82
2024/04/11 18:32:42;;;;;;;16.20;7.50;;;;;;;17.20;55.05;101643.44;676247;1265;138571;-83
2024/04/11 18:47:45;;;;;;;12.20;6.20;;;;;;;17.13;55.27;101636.17;675774;1262;138235;-81
2024/04/11 19:02:53;;;;;;;10.50;4.60;;;;;;;17.09;55.61;101642.87;675546;1262;138862;-82
2024/04/11 19:17:56;;;;;;;7.90;4.40;;;;;;;17.03;56.04;101649.39;676302;1265;139030;-82
2024/04/11 19:33:00;;;;;;;11.10;4.70;;;;;;;17.06;56.43;101643.89;674013;1265;139136;-83
2024/04/11 19:48:06;;;;;;;9.20;4.40;;;;;;;17.02;56.92;101649.67;669629;1265;138916;-83
2024/04/11 20:03:19;;;;;;;6.40;3.80;;;;;;;16.95;57.43;101645.23;681684;1265;138195;-84
2024/04/11 20:18:33;;;;;;;8.60;4.70;;;;;;;16.80;57.75;101644.98;681415;1265;138129;-81
2024/04/11 20:33:42;;;;;;;8.10;4.70;;;;;;;16.74;57.85;101642.58;681630;1276;138950;-83
2024/04/11 21:34:43;;;;;;;7.60;3.40;;;;;;;15.85;57.79;101659.70;681623;1262;138389;-84
2024/04/11 21:49:48;;;;;;;5.30;3.00;;;;;;;15.58;58.14;101667.55;681788;1265;137834;-84
2024/04/11 22:07:35;;;;;;;13.20;2.90;;;;;;;15.39;58.23;101673.98;662153;1289;544966;-84
2024/04/11 22:22:57;;;;;;;7.90;2.80;;;;;;;15.14;58.70;101677.48;672125;1267;138071;-84
2024/04/11 22:38:01;;;;;;;8.60;2.80;;;;;;;14.85;59.23;101677.61;669507;1271;139136;-84
2024/04/11 22:53:04;;;;;;;58.00;27.80;;;;;;;14.57;59.38;101682.05;667874;1267;137929;-84
2024/04/11 23:08:07;;;;;;;198.20;77.90;;;;;;;14.13;60.87;101695.66;669910;1268;138676;-84
2024/04/11 23:23:18;;;;;;;246.50;83.70;;;;;;;14.02;61.31;101703.09;668658;1272;138921;-84
2024/04/11 23:38:21;;;;;;;23.10;10.10;;;;;;;14.04;61.96;101709.25;668458;1269;139127;-82
2024/04/11 23:53:30;;;;;;;11.50;4.00;;;;;;;14.13;62.45;101690.86;669648;1268;138435;-84
